Time;durP1;ratioP1;P1;durP2;ratioP2;P2;SDS_P1;SDS_P2;PMS_P1;PMS_P2;Temp;Humidity;BMP_temperature;BMP_pressure;BME280_temperature;BME280_humidity;BME280_pressure;Samples;Min_cycle;Max_cycle;Signal;HPM_P1;HPM_P2
2023/09/30 00:01:15;;;;;;;0.00;0.00;;;;;;;16.92;64.56;101608.88;15664088;28;20126;-49
2023/09/30 00:08:50;;;;;;;0.00;0.00;;;;;;;17.01;64.28;101615.63;15671863;28;20049;-45
2023/09/30 00:16:23;;;;;;;0.17;0.13;;;;;;;16.74;64.67;101627.91;15715195;28;20045;-44
2023/09/30 00:23:57;;;;;;;0.03;0.03;;;;;;;16.24;66.54;101645.19;15681758;28;20103;-48
2023/09/30 00:31:31;;;;;;;0.00;0.00;;;;;;;16.00;66.21;101644.19;15644019;28;20383;-46
2023/09/30 00:39:09;;;;;;;0.00;0.00;;;;;;;15.99;66.23;101671.47;15654431;28;20484;-47
2023/09/30 00:46:42;;;;;;;0.10;0.10;;;;;;;15.65;66.79;101667.44;15680755;28;20036;-48
2023/09/30 00:54:18;;;;;;;8.10;1.20;;;;;;;16.26;65.13;101678.28;15678093;28;20486;-45
2023/09/30 01:01:52;;;;;;;0.00;0.00;;;;;;;15.74;66.48;101679.63;15659369;28;20053;-45
2023/09/30 01:09:27;;;;;;;0.00;0.00;;;;;;;16.14;64.81;101699.06;15683279;28;20135;-49
2023/09/30 01:17:00;;;;;;;0.00;0.00;;;;;;;15.70;66.47;101700.88;15682072;28;20055;-47
2023/09/30 01:24:41;;;;;;;0.10;0.10;;;;;;;15.44;66.98;101717.31;15675816;28;20045;-46
2023/09/30 01:32:15;;;;;;;0.00;0.00;;;;;;;15.52;66.43;101715.16;15663618;28;20398;-51
2023/09/30 01:39:54;;;;;;;0.00;0.00;;;;;;;14.88;68.75;101726.97;15678497;28;20131;-47
2023/09/30 01:47:27;;;;;;;0.00;0.00;;;;;;;14.90;69.00;101733.00;15663660;28;20061;-48
2023/09/30 01:55:04;;;;;;;0.63;0.45;;;;;;;15.18;68.35;101750.75;15676208;28;20525;-52
2023/09/30 02:02:38;;;;;;;0.00;0.00;;;;;;;14.39;72.09;101766.16;15660726;28;20159;-47
2023/09/30 02:10:12;;;;;;;0.30;0.30;;;;;;;14.58;72.25;101766.34;15722160;28;20158;-43
2023/09/30 02:17:48;;;;;;;0.00;0.00;;;;;;;14.52;72.85;101760.75;15678055;28;20049;-45
2023/09/30 02:25:23;;;;;;;0.00;0.00;;;;;;;14.40;73.00;101756.19;15658599;28;20120;-45
2023/09/30 02:32:57;;;;;;;0.10;0.10;;;;;;;14.37;73.17;101776.34;15674087;28;20052;-50
2023/09/30 02:40:34;;;;;;;0.38;0.38;;;;;;;14.45;72.85;101786.09;15657775;28;20048;-46
2023/09/30 02:48:08;;;;;;;0.20;0.20;;;;;;;14.14;73.92;101800.25;15655430;28;20037;-48
2023/09/30 02:55:42;;;;;;;0.65;0.65;;;;;;;13.82;75.47;101802.72;15655501;28;20217;-47
2023/09/30 03:03:21;;;;;;;0.00;0.00;;;;;;;13.91;74.58;101806.88;15666293;28;20041;-47
2023/09/30 03:10:55;;;;;;;0.03;0.03;;;;;;;13.83;75.05;101820.56;15673893;28;20144;-51
2023/09/30 03:18:30;;;;;;;0.05;0.05;;;;;;;13.79;74.93;101817.44;15674024;28;20037;-46
2023/09/30 03:26:09;;;;;;;8.32;1.60;;;;;;;13.72;75.61;101831.97;15656184;28;20091;-46
2023/09/30 03:33:42;;;;;;;0.30;0.30;;;;;;;13.34;76.69;101842.44;15672845;28;20052;-45
2023/09/30 03:41:19;;;;;;;11.38;0.88;;;;;;;13.68;75.38;101839.66;15670580;28;20044;-48
2023/09/30 03:48:52;;;;;;;2.17;1.77;;;;;;;13.78;75.43;101844.66;15652712;28;20453;-45
2023/09/30 03:56:27;;;;;;;0.08;0.08;;;;;;;13.25;77.17;101852.56;15666192;28;20144;-52
2023/09/30 04:04:01;;;;;;;0.13;0.13;;;;;;;13.66;75.84;101835.47;15668921;28;20053;-46
2023/09/30 04:11:36;;;;;;;0.25;0.10;;;;;;;13.21;77.06;101854.78;15653836;28;20513;-48
2023/09/30 04:19:10;;;;;;;0.00;0.00;;;;;;;13.16;77.68;101861.81;15666913;28;20090;-49
2023/09/30 04:26:44;;;;;;;0.98;0.70;;;;;;;13.06;77.47;101864.88;15683772;28;20087;-52
2023/09/30 04:34:19;;;;;;;0.20;0.10;;;;;;;13.52;76.18;101870.53;15682364;28;20040;-49
2023/09/30 04:42:04;;;;;;;0.82;0.80;;;;;;;13.04;76.73;101872.31;15682758;28;20051;-49
2023/09/30 04:49:37;;;;;;;0.28;0.28;;;;;;;13.14;75.86;101870.09;15661112;28;20056;-47
2023/09/30 04:57:11;;;;;;;;;;;;;;;12.81;77.04;101874.47;15682572;28;20140;-49
2023/09/30 05:04:45;;;;;;;2.40;0.73;;;;;;;13.06;76.65;101856.81;15681100;28;19921;-47
2023/09/30 05:12:20;;;;;;;0.80;0.50;;;;;;;13.25;75.83;101891.16;15680718;28;20044;-50
2023/09/30 05:19:53;;;;;;;0.57;0.40;;;;;;;13.19;75.53;101885.66;15679998;28;20037;-45
2023/09/30 05:27:28;;;;;;;0.08;0.08;;;;;;;12.59;77.89;101917.63;15679789;28;20118;-48
2023/09/30 05:35:03;;;;;;;0.00;0.00;;;;;;;12.40;79.32;101921.81;15662584;28;20419;-50
2023/09/30 05:42:38;;;;;;;0.15;0.15;;;;;;;12.46;79.98;101926.41;15659941;28;20570;-48
2023/09/30 05:50:14;;;;;;;1.25;0.95;;;;;;;12.80;79.40;101949.06;15678243;28;20076;-48
2023/09/30 05:57:50;;;;;;;0.32;0.30;;;;;;;13.06;79.50;101951.16;15677739;28;20056;-49
2023/09/30 06:05:23;;;;;;;0.00;0.00;;;;;;;13.27;78.49;101956.47;15664469;28;20060;-52
2023/09/30 06:12:59;;;;;;;0.20;0.20;;;;;;;13.45;77.50;101944.34;15666963;28;20362;-46
2023/09/30 06:20:33;;;;;;;0.17;0.15;;;;;;;13.77;76.20;101972.53;15676544;28;20501;-44
2023/09/30 06:28:08;;;;;;;0.65;0.60;;;;;;;13.77;75.98;101975.22;15626885;23;20041;-46
2023/09/30 06:35:50;;;;;;;0.00;0.00;;;;;;;13.76;76.15;101982.47;15621225;28;20409;-48
2023/09/30 06:43:24;;;;;;;0.57;0.57;;;;;;;13.67;76.07;101993.66;15613617;28;20041;-47
2023/09/30 06:50:58;;;;;;;0.70;0.70;;;;;;;13.78;75.47;101995.75;15630667;28;20049;-47
2023/09/30 06:58:33;;;;;;;0.10;0.00;;;;;;;13.89;75.20;101997.88;15673252;28;20456;-48
2023/09/30 07:06:06;;;;;;;0.00;0.00;;;;;;;14.19;74.52;101998.41;15679527;28;20041;-51
2023/09/30 07:13:40;;;;;;;0.00;0.00;;;;;;;14.39;73.80;102014.66;15641474;28;20455;-50
2023/09/30 07:21:15;;;;;;;0.00;0.00;;;;;;;14.69;71.82;102028.69;15652026;28;20045;-46
2023/09/30 07:28:49;;;;;;;0.10;0.10;;;;;;;14.62;72.51;102046.75;15636735;28;20037;-48
2023/09/30 07:36:23;;;;;;;0.00;0.00;;;;;;;14.60;72.40;102042.59;15597442;28;20072;-49
2023/09/30 07:43:57;;;;;;;0.00;0.00;;;;;;;15.31;69.96;102050.97;15610890;28;20072;-48
2023/09/30 07:51:30;;;;;;;0.45;0.45;;;;;;;14.94;70.65;102063.22;15629884;28;20085;-49
2023/09/30 07:59:06;;;;;;;0.00;0.00;;;;;;;14.77;71.30;102065.47;15614991;28;20049;-47
2023/09/30 08:06:39;;;;;;;0.13;0.10;;;;;;;14.74;71.91;102080.25;15611629;28;20060;-52
2023/09/30 08:14:15;;;;;;;;;;;;;;;15.17;70.13;102070.94;15626856;28;20037;-48
2023/09/30 08:21:48;;;;;;;0.00;0.00;;;;;;;15.50;69.50;102079.84;15599524;28;19979;-46
2023/09/30 08:29:23;;;;;;;0.95;0.52;;;;;;;15.57;68.99;102093.38;15629111;28;20037;-46
2023/09/30 08:36:56;;;;;;;0.85;0.85;;;;;;;15.52;68.31;102080.47;15624336;28;20131;-45
2023/09/30 08:44:31;;;;;;;0.00;0.00;;;;;;;16.39;66.53;102091.09;15669971;28;20045;-45
2023/09/30 08:52:06;;;;;;;0.00;0.00;;;;;;;16.20;66.68;102095.56;15664822;28;20502;-49
2023/09/30 08:59:42;;;;;;;0.00;0.00;;;;;;;16.68;65.94;102097.81;15667886;28;20049;-45
2023/09/30 09:07:16;;;;;;;0.22;0.22;;;;;;;17.18;62.98;102085.19;15687052;28;20051;-46
2023/09/30 09:14:50;;;;;;;0.52;0.43;;;;;;;18.11;60.00;102070.69;15686435;28;20119;-50
2023/09/30 09:22:23;;;;;;;0.35;0.17;;;;;;;18.94;57.30;102080.03;15625510;28;20049;-46
2023/09/30 09:30:15;;;;;;;1.65;0.40;;;;;;;18.76;58.39;102092.63;15640021;28;20128;-46
2023/09/30 09:37:59;;;;;;;4.00;0.98;;;;;;;19.05;56.96;102093.66;15627201;28;20076;-49
2023/09/30 09:45:36;;;;;;;1.75;0.85;;;;;;;19.84;54.05;102085.19;15655387;28;20074;-49
2023/09/30 09:53:10;;;;;;;0.90;0.38;;;;;;;19.41;55.84;102086.38;15681329;28;20095;-52
2023/09/30 10:00:45;;;;;;;0.10;0.10;;;;;;;19.76;53.99;102082.81;15664686;28;20055;-50
2023/09/30 10:08:23;;;;;;;1.40;0.63;;;;;;;20.03;52.49;102069.50;15665579;28;20079;-51
2023/09/30 10:15:57;;;;;;;0.00;0.00;;;;;;;20.17;51.90;102083.69;15682811;28;20555;-49
2023/09/30 10:23:33;;;;;;;0.10;0.10;;;;;;;20.25;51.11;102080.59;15682403;28;20417;-49
2023/09/30 10:31:19;;;;;;;0.47;0.47;;;;;;;20.69;49.77;102089.91;15682280;28;20048;-48
2023/09/30 10:38:53;;;;;;;0.00;0.00;;;;;;;21.44;48.20;102087.91;15647971;28;20482;-48
2023/09/30 10:46:34;;;;;;;0.30;0.17;;;;;;;20.17;49.12;102086.41;15656925;28;20135;-50
2023/09/30 10:54:07;;;;;;;0.57;0.15;;;;;;;19.52;51.11;102101.03;15663073;28;20037;-49
2023/09/30 11:01:42;;;;;;;0.00;0.00;;;;;;;20.18;48.74;102094.34;15672879;28;20052;-51
2023/09/30 11:09:17;;;;;;;0.00;0.00;;;;;;;19.93;48.77;102091.91;15663983;28;20116;-50
2023/09/30 11:16:53;;;;;;;0.22;0.15;;;;;;;19.36;48.42;102092.53;15645803;28;20128;-51
2023/09/30 11:24:28;;;;;;;2.20;0.85;;;;;;;19.39;50.17;102083.03;15679539;28;20079;-48
2023/09/30 11:32:03;;;;;;;0.00;0.00;;;;;;;19.05;50.38;102087.38;15678437;28;20410;-50
2023/09/30 11:39:38;;;;;;;1.55;0.50;;;;;;;20.62;47.23;102068.25;15671827;28;20041;-48
2023/09/30 11:47:15;;;;;;;1.45;1.08;;;;;;;21.40;45.10;102049.34;15671595;28;20037;-49
2023/09/30 11:54:48;;;;;;;0.30;0.30;;;;;;;21.49;46.18;102044.28;15677942;28;20119;-51
2023/09/30 12:02:22;;;;;;;0.00;0.00;;;;;;;21.56;44.36;102044.94;15670074;28;20037;-50
2023/09/30 12:09:55;;;;;;;0.15;0.10;;;;;;;21.02;44.60;102041.88;15665348;28;20505;-50
2023/09/30 12:17:30;;;;;;;0.05;0.05;;;;;;;21.68;43.79;102031.97;15613021;28;20042;-50
2023/09/30 12:25:04;;;;;;;2.40;0.25;;;;;;;22.08;42.52;102026.19;15629776;28;20049;-50
2023/09/30 12:32:39;;;;;;;0.00;0.00;;;;;;;23.02;40.79;102029.59;15638880;28;20041;-50
2023/09/30 12:40:16;;;;;;;0.00;0.00;;;;;;;21.77;41.12;102010.50;15646363;28;20037;-51
2023/09/30 12:47:52;;;;;;;7.03;0.80;;;;;;;21.99;43.64;102015.97;15659211;28;20045;-50
2023/09/30 12:55:26;;;;;;;0.00;0.00;;;;;;;22.64;41.84;102015.84;15649027;28;20120;-51
2023/09/30 13:03:01;;;;;;;0.05;0.05;;;;;;;22.23;42.97;102019.25;15631180;28;20060;-52
2023/09/30 13:10:35;;;;;;;0.00;0.00;;;;;;;21.37;40.66;102023.38;15645706;28;20150;-51
2023/09/30 13:18:09;;;;;;;0.30;0.28;;;;;;;21.10;42.01;102017.72;15632313;28;20037;-51
2023/09/30 13:25:42;;;;;;;1.65;1.00;;;;;;;21.78;41.87;102021.19;15636812;28;20041;-51
2023/09/30 13:33:17;;;;;;;0.10;0.10;;;;;;;21.14;41.70;102009.88;15630424;28;20183;-51
2023/09/30 13:40:50;;;;;;;0.28;0.25;;;;;;;20.36;43.81;102014.25;15630667;28;20509;-50
2023/09/30 13:48:24;;;;;;;0.00;0.00;;;;;;;21.34;43.23;102023.03;15628361;28;20084;-50
2023/09/30 13:55:58;;;;;;;0.35;0.30;;;;;;;20.66;42.44;102021.34;15636783;28;20494;-52
2023/09/30 14:03:33;;;;;;;0.00;0.00;;;;;;;20.27;42.29;102021.19;15638320;28;20045;-51
2023/09/30 14:11:06;;;;;;;0.00;0.00;;;;;;;20.51;43.63;102021.91;15625406;28;20046;-52
2023/09/30 14:18:42;;;;;;;0.28;0.10;;;;;;;20.17;42.32;102015.53;15628742;28;20045;-50
2023/09/30 14:26:15;;;;;;;0.70;0.30;;;;;;;20.33;42.77;102014.72;15630937;28;20044;-51
2023/09/30 14:33:50;;;;;;;0.00;0.00;;;;;;;20.88;42.88;102008.63;15608092;28;20046;-50
2023/09/30 14:41:23;;;;;;;0.00;0.00;;;;;;;20.43;42.28;102005.94;15630775;28;21080;-49
2023/09/30 14:48:58;;;;;;;0.32;0.32;;;;;;;20.44;44.20;101999.41;15629057;28;20073;-51
2023/09/30 14:56:31;;;;;;;0.00;0.00;;;;;;;19.73;44.42;101988.78;15629830;28;20080;-49
2023/09/30 15:04:06;;;;;;;0.00;0.00;;;;;;;19.41;46.08;101984.78;15631226;28;20364;-49
2023/09/30 15:11:40;;;;;;;0.00;0.00;;;;;;;19.44;46.58;101992.47;15622825;28;20587;-50
2023/09/30 15:19:15;;;;;;;0.15;0.15;;;;;;;19.56;47.16;101977.75;15634868;28;20051;-50
2023/09/30 15:26:54;;;;;;;0.00;0.00;;;;;;;19.24;47.31;101963.72;15653856;28;20042;-50
2023/09/30 15:34:29;;;;;;;0.60;0.52;;;;;;;19.74;46.99;101978.72;15614449;28;20491;-50
2023/09/30 15:42:04;;;;;;;3.30;0.85;;;;;;;19.31;47.56;101988.13;15625827;28;20457;-51
2023/09/30 15:49:38;;;;;;;0.00;0.00;;;;;;;18.83;49.14;101984.53;15616476;28;20052;-51
2023/09/30 15:57:12;;;;;;;3.85;0.90;;;;;;;18.83;48.81;102003.56;15637713;28;20049;-48
2023/09/30 16:04:46;;;;;;;0.30;0.30;;;;;;;18.97;49.80;102003.34;15664747;28;20486;-49
2023/09/30 16:12:19;;;;;;;1.90;0.40;;;;;;;19.17;50.08;102006.59;15658532;28;20041;-49
2023/09/30 16:19:54;;;;;;;0.55;0.40;;;;;;;19.20;51.09;102025.16;15657078;28;20394;-47
2023/09/30 16:27:28;;;;;;;0.00;0.00;;;;;;;18.94;51.79;102012.00;15677300;28;20040;-48
2023/09/30 16:35:03;;;;;;;0.28;0.28;;;;;;;18.77;52.48;102025.47;15677533;28;20517;-46
2023/09/30 16:42:37;;;;;;;0.10;0.10;;;;;;;18.64;52.92;102025.63;15677327;28;20045;-50
2023/09/30 16:50:12;;;;;;;8.20;2.17;;;;;;;18.23;54.11;102032.69;15665036;28;20046;-47
2023/09/30 16:57:45;;;;;;;0.00;0.00;;;;;;;17.95;55.06;102025.09;15648330;28;20045;-49
2023/09/30 17:05:21;;;;;;;0.32;0.28;;;;;;;17.38;56.07;102005.47;15642483;28;20512;-49
2023/09/30 17:12:54;;;;;;;6.82;0.75;;;;;;;17.46;56.08;102027.72;15675773;28;20041;-52
2023/09/30 17:20:29;;;;;;;0.00;0.00;;;;;;;17.09;56.52;102030.38;15658177;28;20040;-47
2023/09/30 17:28:02;;;;;;;0.13;0.13;;;;;;;17.00;57.22;102039.81;15685771;28;20084;-44
2023/09/30 17:35:41;;;;;;;0.20;0.10;;;;;;;16.73;57.50;102038.38;15678047;28;20041;-44
2023/09/30 17:43:14;;;;;;;2.53;1.30;;;;;;;16.57;57.84;102043.25;15651102;28;20136;-45
2023/09/30 17:50:49;;;;;;;;;;;;;;;16.39;58.74;102048.56;15660154;28;20045;-49
2023/09/30 17:58:21;;;;;;;0.20;0.20;;;;;;;16.05;59.69;102061.44;15676249;28;20019;-46
2023/09/30 18:06:05;;;;;;;0.10;0.10;;;;;;;15.84;60.32;102055.47;15683625;28;20049;-46
2023/09/30 18:13:39;;;;;;;0.05;0.00;;;;;;;15.74;60.61;102064.03;15665336;28;20120;-49
2023/09/30 18:21:13;;;;;;;0.10;0.10;;;;;;;15.59;61.09;102072.34;15670586;28;20041;-50
2023/09/30 18:28:46;;;;;;;0.38;0.38;;;;;;;15.56;61.12;102064.66;15684953;22;20102;-48
2023/09/30 18:36:21;;;;;;;0.20;0.20;;;;;;;15.27;61.72;102064.06;15680641;28;20117;-47
2023/09/30 18:43:54;;;;;;;0.35;0.35;;;;;;;15.05;62.39;102066.13;15663083;28;20516;-47
2023/09/30 18:51:29;;;;;;;0.00;0.00;;;;;;;15.07;62.26;102067.81;15680787;28;20073;-49
2023/09/30 18:59:01;;;;;;;0.43;0.30;;;;;;;14.68;63.01;102059.44;15654637;28;20497;-47
2023/09/30 19:06:36;;;;;;;0.28;0.28;;;;;;;14.76;63.15;102063.81;15678125;28;20037;-48
2023/09/30 19:14:12;;;;;;;0.00;0.00;;;;;;;14.87;62.29;102063.22;15674350;28;20047;-47
2023/09/30 19:21:47;;;;;;;0.00;0.00;;;;;;;14.91;62.66;102058.22;15660785;28;20041;-48
2023/09/30 19:29:21;;;;;;;2.75;1.70;;;;;;;14.76;62.81;102066.53;15671380;28;20094;-49
2023/09/30 19:36:55;;;;;;;0.00;0.00;;;;;;;14.63;63.04;102070.03;15673411;28;20059;-51
2023/09/30 19:44:28;;;;;;;1.20;1.00;;;;;;;14.58;62.76;102064.41;15670299;28;20053;-48
2023/09/30 19:52:04;;;;;;;0.63;0.63;;;;;;;14.18;63.81;102053.47;15636507;28;20068;-47
2023/09/30 19:59:39;;;;;;;0.00;0.00;;;;;;;14.14;63.67;102060.31;15672135;28;20520;-48
2023/09/30 20:07:14;;;;;;;0.00;0.00;;;;;;;13.94;64.59;102064.75;15677072;28;20128;-49
2023/09/30 20:14:47;;;;;;;0.35;0.35;;;;;;;13.18;66.89;102065.47;15664338;28;20493;-48
2023/09/30 20:22:23;;;;;;;0.60;0.57;;;;;;;13.81;64.82;102062.00;15657079;28;20091;-50
2023/09/30 20:29:57;;;;;;;0.65;0.65;;;;;;;13.78;65.03;102058.66;15675699;28;20358;-49
2023/09/30 20:37:32;;;;;;;0.98;0.85;;;;;;;13.89;64.06;102051.88;15658524;28;20136;-49
2023/09/30 20:45:06;;;;;;;0.68;0.38;;;;;;;13.64;64.42;102059.63;15674888;28;20041;-48
2023/09/30 20:52:42;;;;;;;1.05;0.50;;;;;;;13.63;64.84;102054.44;15675524;28;20052;-49
2023/09/30 21:00:17;;;;;;;0.08;0.08;;;;;;;13.78;64.68;102050.56;15678373;28;20044;-48
2023/09/30 21:07:52;;;;;;;0.30;0.30;;;;;;;13.61;65.27;102051.09;15685162;28;20484;-51
2023/09/30 21:15:29;;;;;;;0.17;0.10;;;;;;;13.60;66.01;102057.50;15652337;28;20506;-49
2023/09/30 21:23:04;;;;;;;0.00;0.00;;;;;;;13.76;65.88;102039.16;15684214;28;20045;-52
2023/09/30 21:30:37;;;;;;;0.08;0.08;;;;;;;13.70;66.28;102052.59;15667841;28;20453;-50
2023/09/30 21:38:17;;;;;;;0.40;0.40;;;;;;;13.88;65.65;102057.47;15683479;28;20092;-49
2023/09/30 21:45:50;;;;;;;0.00;0.00;;;;;;;13.31;66.52;102053.16;15669984;28;20055;-49
2023/09/30 21:53:25;;;;;;;1.27;0.65;;;;;;;13.91;64.65;102043.59;15684196;28;20046;-49
2023/09/30 22:00:58;;;;;;;1.65;1.13;;;;;;;13.67;65.36;102053.84;15675867;28;20128;-48
2023/09/30 22:08:33;;;;;;;1.25;1.02;;;;;;;13.69;65.80;102046.38;15677269;28;20049;-50
2023/09/30 22:16:06;;;;;;;0.28;0.17;;;;;;;13.72;65.63;102054.06;15672135;28;20429;-50
2023/09/30 22:23:45;;;;;;;0.05;0.05;;;;;;;13.86;65.59;102048.75;15675194;28;20049;-48
2023/09/30 22:31:18;;;;;;;0.00;0.00;;;;;;;13.60;65.87;102041.31;15681948;28;20045;-47
2023/09/30 22:38:52;;;;;;;0.15;0.15;;;;;;;13.70;65.94;102037.22;15682792;28;20425;-50
2023/09/30 22:46:25;;;;;;;0.43;0.43;;;;;;;13.93;65.49;102049.59;15667383;28;20494;-49
2023/09/30 22:54:00;;;;;;;0.08;0.05;;;;;;;13.69;66.03;102038.28;15618557;28;20049;-50
2023/09/30 23:01:33;;;;;;;0.45;0.43;;;;;;;13.74;66.52;102038.50;15664513;28;20044;-49
2023/09/30 23:09:10;;;;;;;0.05;0.05;;;;;;;13.88;65.35;102028.59;15740992;28;20135;-52
2023/09/30 23:16:44;;;;;;;0.00;0.00;;;;;;;13.87;65.01;102037.75;15723454;28;20048;-50
2023/09/30 23:24:20;;;;;;;0.00;0.00;;;;;;;13.57;65.73;102039.00;15714672;28;20086;-52
2023/09/30 23:31:53;;;;;;;0.30;0.30;;;;;;;13.59;66.25;102036.97;15721496;28;20055;-51
2023/09/30 23:39:27;;;;;;;0.03;0.03;;;;;;;13.92;66.26;102040.69;15739743;28;20501;-51
2023/09/30 23:47:03;;;;;;;0.52;0.43;;;;;;;14.06;64.55;102049.66;15740058;28;20071;-48
2023/09/30 23:54:37;;;;;;;0.10;0.10;;;;;;;14.19;65.00;102043.50;15701256;28;20049;-47
